createdAt,value
2023-03-05T00:01:29.528Z,4.40
2023-03-05T00:03:57.531Z,4.30
2023-03-05T00:06:29.100Z,4.30
2023-03-05T00:08:58.257Z,4.30
2023-03-05T00:11:30.182Z,4.30
2023-03-05T00:13:59.305Z,4.30
2023-03-05T00:16:27.952Z,4.30
2023-03-05T00:19:00.427Z,4.30
2023-03-05T00:21:32.090Z,4.20
2023-03-05T00:24:03.232Z,4.30
2023-03-05T00:26:31.402Z,4.20
2023-03-05T00:28:58.838Z,4.20
2023-03-05T00:31:32.287Z,4.20
2023-03-05T00:34:06.457Z,4.20
2023-03-05T00:36:34.727Z,4.20
2023-03-05T00:39:02.019Z,4.30
2023-03-05T00:41:28.876Z,4.30
2023-03-05T00:43:56.059Z,4.30
2023-03-05T00:46:23.372Z,4.40
2023-03-05T00:48:50.459Z,4.30
2023-03-05T00:51:17.375Z,4.30
2023-03-05T00:53:44.354Z,4.30
2023-03-05T00:56:11.890Z,4.30
2023-03-05T00:58:39.127Z,4.30
2023-03-05T01:01:07.195Z,4.30
2023-03-05T01:03:36.219Z,4.30
2023-03-05T01:06:10.677Z,4.30
2023-03-05T01:08:37.962Z,4.30
2023-03-05T01:11:06.745Z,4.40
2023-03-05T01:13:33.735Z,4.30
2023-03-05T01:16:01.198Z,4.20
2023-03-05T01:18:28.680Z,4.20
2023-03-05T01:20:55.604Z,4.20
2023-03-05T01:23:22.635Z,4.20
2023-03-05T01:26:00.350Z,4.20
2023-03-05T01:28:27.951Z,4.20
2023-03-05T01:30:55.160Z,4.20
2023-03-05T01:33:22.152Z,4.30
2023-03-05T01:35:49.943Z,4.30
2023-03-05T01:38:17.797Z,4.30
2023-03-05T01:40:45.234Z,4.30
2023-03-05T01:43:12.065Z,4.30
2023-03-05T01:46:18.714Z,4.30
2023-03-05T01:48:56.196Z,4.20
2023-03-05T01:51:29.142Z,4.30
2023-03-05T01:53:59.227Z,4.30
2023-03-05T01:56:29.288Z,4.30
2023-03-05T01:59:03.436Z,4.30
2023-03-05T02:01:44.487Z,4.30
2023-03-05T02:04:17.163Z,4.30
2023-03-05T02:06:45.555Z,4.30
2023-03-05T02:09:13.343Z,4.20
2023-03-05T02:11:41.122Z,4.30
2023-03-05T02:14:10.263Z,4.20
2023-03-05T02:16:38.749Z,4.20
2023-03-05T02:19:12.317Z,4.20
2023-03-05T02:21:43.897Z,4.40
2023-03-05T02:24:33.350Z,4.20
2023-03-05T02:27:02.703Z,4.30
2023-03-05T02:29:31.718Z,4.30
2023-03-05T02:31:58.988Z,4.40
2023-03-05T02:34:26.216Z,4.30
2023-03-05T02:36:55.531Z,4.30
2023-03-05T02:39:22.796Z,4.30
2023-03-05T02:41:49.681Z,4.30
2023-03-05T02:44:16.596Z,4.30
2023-03-05T02:46:43.428Z,4.30
2023-03-05T02:49:10.308Z,4.40
2023-03-05T02:51:37.171Z,4.40
2023-03-05T02:54:04.316Z,4.40
2023-03-05T02:56:31.314Z,4.40
2023-03-05T02:58:58.272Z,4.50
2023-03-05T03:01:28.121Z,4.40
2023-03-05T03:03:55.780Z,4.70
2023-03-05T03:06:22.806Z,4.50
2023-03-05T03:08:49.676Z,4.50
2023-03-05T03:11:17.637Z,4.50
2023-03-05T03:13:44.646Z,4.50
2023-03-05T03:16:15.606Z,4.50
2023-03-05T03:18:44.074Z,4.50
2023-03-05T03:21:23.536Z,4.60
2023-03-05T03:23:50.457Z,4.50
2023-03-05T03:26:17.832Z,4.50
2023-03-05T03:28:45.112Z,4.50
2023-03-05T03:31:12.469Z,4.50
2023-03-05T03:33:39.510Z,4.50
2023-03-05T03:36:07.185Z,4.50
2023-03-05T03:38:34.055Z,4.60
2023-03-05T03:41:00.989Z,4.60
2023-03-05T03:43:27.858Z,4.50
2023-03-05T03:45:54.769Z,4.50
2023-03-05T03:48:21.612Z,4.60
2023-03-05T03:50:48.505Z,4.50
2023-03-05T03:53:17.349Z,4.50
2023-03-05T03:55:46.472Z,4.50
2023-03-05T03:58:13.743Z,4.50
2023-03-05T04:00:41.649Z,4.60
2023-03-05T04:03:09.240Z,4.60
2023-03-05T04:05:36.086Z,4.60
2023-03-05T04:08:03.508Z,4.60
2023-03-05T04:10:30.498Z,4.70
2023-03-05T04:12:57.310Z,4.60
2023-03-05T04:15:25.041Z,4.70
2023-03-05T04:17:51.906Z,4.60
2023-03-05T04:20:18.944Z,4.70
2023-03-05T04:22:45.788Z,4.60
2023-03-05T04:25:12.608Z,4.70
2023-03-05T04:27:40.409Z,4.70
2023-03-05T04:30:11.562Z,4.70
2023-03-05T04:32:38.406Z,4.70
2023-03-05T04:35:05.623Z,4.70
2023-03-05T04:37:33.252Z,4.70
2023-03-05T04:40:00.177Z,4.80
2023-03-05T04:42:27.024Z,4.80
2023-03-05T04:44:53.862Z,4.80
2023-03-05T04:47:20.739Z,4.80
2023-03-05T04:49:47.550Z,4.80
2023-03-05T04:52:15.169Z,4.90
2023-03-05T04:54:44.068Z,4.90
2023-03-05T04:57:11.041Z,4.90
2023-03-05T04:59:38.684Z,5.10
2023-03-05T05:02:06.001Z,5.00
2023-03-05T05:04:33.218Z,5.00
2023-03-05T05:07:00.140Z,5.00
2023-03-05T05:09:27.197Z,5.00
2023-03-05T05:11:54.322Z,5.00
2023-03-05T05:14:21.453Z,5.10
2023-03-05T05:16:48.569Z,5.10
2023-03-05T05:19:15.459Z,5.10
2023-03-05T05:21:42.626Z,5.00
2023-03-05T05:24:09.814Z,5.10
2023-03-05T05:26:36.709Z,5.10
2023-03-05T05:29:03.683Z,5.10
2023-03-05T05:31:30.522Z,5.10
2023-03-05T05:33:59.840Z,5.10
2023-03-05T05:36:26.702Z,5.10
2023-03-05T05:38:54.068Z,5.10
2023-03-05T05:41:21.106Z,5.10
2023-03-05T05:43:48.725Z,5.20
2023-03-05T05:46:19.894Z,5.10
2023-03-05T05:48:47.616Z,5.10
2023-03-05T05:51:21.815Z,5.20
2023-03-05T05:53:49.073Z,5.20
2023-03-05T05:56:17.228Z,5.20
2023-03-05T05:58:47.788Z,5.20
2023-03-05T06:01:31.967Z,5.40
2023-03-05T06:03:59.739Z,5.20
2023-03-05T06:06:28.011Z,5.20
2023-03-05T06:08:55.881Z,5.30
2023-03-05T06:11:23.344Z,5.20
2023-03-05T06:13:50.588Z,5.20
2023-03-05T06:16:24.081Z,5.20
2023-03-05T06:18:52.780Z,5.20
2023-03-05T06:21:21.423Z,5.20
2023-03-05T06:23:49.966Z,5.20
2023-03-05T06:26:21.736Z,5.30
2023-03-05T06:28:48.766Z,5.40
2023-03-05T06:31:21.913Z,5.30
2023-03-05T06:33:50.221Z,5.30
2023-03-05T06:36:19.615Z,5.40
2023-03-05T06:38:48.394Z,5.40
2023-03-05T06:41:20.460Z,5.40
2023-03-05T06:43:49.081Z,5.40
2023-03-05T06:46:20.491Z,5.40
2023-03-05T06:48:48.815Z,5.50
2023-03-05T06:51:21.146Z,5.50
2023-03-05T06:53:49.721Z,5.50
2023-03-05T06:56:18.195Z,5.50
2023-03-05T06:58:47.932Z,5.50
2023-03-05T07:01:16.220Z,5.50
2023-03-05T07:03:44.211Z,5.50
2023-03-05T07:06:14.385Z,5.60
2023-03-05T07:08:42.580Z,5.70
2023-03-05T07:11:17.053Z,5.70
2023-03-05T07:13:47.597Z,5.60
2023-03-05T07:16:17.940Z,5.60
2023-03-05T07:18:45.803Z,5.60
2023-03-05T07:21:19.358Z,5.60
2023-03-05T07:23:46.667Z,5.70
2023-03-05T07:26:14.534Z,5.70
2023-03-05T07:28:41.575Z,5.70
2023-03-05T07:31:13.842Z,5.70
2023-03-05T07:33:40.909Z,5.70
2023-03-05T07:36:09.660Z,5.80
2023-03-05T07:38:36.886Z,5.80
2023-03-05T07:41:10.561Z,5.80
2023-03-05T07:43:37.776Z,5.80
2023-03-05T07:46:11.575Z,5.90
2023-03-05T07:48:38.681Z,5.80
2023-03-05T07:51:16.947Z,5.90
2023-03-05T07:53:46.109Z,5.90
2023-03-05T07:56:13.659Z,6.00
2023-03-05T07:58:40.517Z,5.90
2023-03-05T08:01:16.653Z,5.90
2023-03-05T08:03:44.203Z,5.90
2023-03-05T08:06:12.844Z,5.90
2023-03-05T08:08:39.806Z,5.90
2023-03-05T08:11:11.479Z,6.00
2023-03-05T08:13:38.933Z,6.00
2023-03-05T08:16:08.926Z,6.00
2023-03-05T08:18:36.282Z,6.00
2023-03-05T08:21:03.513Z,6.10
2023-03-05T08:23:31.075Z,6.00
2023-03-05T08:25:57.917Z,6.10
2023-03-05T08:28:24.787Z,6.20
2023-03-05T08:30:51.879Z,6.20
2023-03-05T08:33:18.941Z,6.10
2023-03-05T08:35:46.356Z,6.20
2023-03-05T08:38:13.580Z,6.20
2023-03-05T08:40:40.446Z,6.30
2023-03-05T08:43:07.264Z,6.30
2023-03-05T08:45:34.195Z,6.30
2023-03-05T08:48:01.018Z,6.30
2023-03-05T08:50:27.978Z,6.40
2023-03-05T08:52:56.920Z,6.40
2023-03-05T08:55:23.945Z,6.40
2023-03-05T08:57:50.972Z,6.40
2023-03-05T09:00:18.421Z,6.50
2023-03-05T09:02:45.422Z,6.50
2023-03-05T09:05:12.694Z,6.60
2023-03-05T09:07:39.742Z,6.60
2023-03-05T09:10:10.264Z,6.70
2023-03-05T09:12:37.836Z,6.80
2023-03-05T09:15:08.405Z,6.80
2023-03-05T09:17:36.849Z,6.90
2023-03-05T09:20:06.401Z,7.00
2023-03-05T09:22:33.366Z,7.10
2023-03-05T09:25:00.268Z,7.20
2023-03-05T09:27:27.059Z,7.30
2023-03-05T09:29:53.874Z,7.30
2023-03-05T09:32:20.752Z,7.40
2023-03-05T09:34:47.583Z,7.40
2023-03-05T09:37:14.496Z,7.50
2023-03-05T09:39:41.421Z,7.50
2023-03-05T09:42:27.816Z,7.60
2023-03-05T09:45:17.559Z,7.60
2023-03-05T09:47:57.004Z,7.60
2023-03-05T09:50:46.749Z,7.60
2023-03-05T09:53:28.680Z,7.60
2023-03-05T09:56:04.346Z,7.50
2023-03-05T09:58:51.483Z,7.50
2023-03-05T10:01:27.044Z,7.40
2023-03-05T10:04:09.525Z,7.40
2023-03-05T10:07:04.054Z,7.40
2023-03-05T10:09:56.041Z,7.40
2023-03-05T10:12:42.985Z,7.40
2023-03-05T10:15:35.710Z,7.40
2023-03-05T10:18:20.445Z,7.40
2023-03-05T10:21:11.333Z,7.40
2023-03-05T10:24:14.587Z,7.40
2023-03-05T10:27:08.008Z,7.40
2023-03-05T10:30:04.988Z,7.40
2023-03-05T10:32:53.015Z,7.40
2023-03-05T10:35:42.801Z,7.40
2023-03-05T10:38:32.312Z,7.30
2023-03-05T10:41:27.708Z,7.30
2023-03-05T10:43:57.344Z,7.30
2023-03-05T10:46:34.004Z,7.30
2023-03-05T10:49:32.226Z,7.30
2023-03-05T10:52:36.228Z,7.30
2023-03-05T10:55:19.307Z,7.30
2023-03-05T10:57:46.192Z,7.30
2023-03-05T11:00:26.295Z,7.40
2023-03-05T11:02:59.552Z,7.50
2023-03-05T11:05:38.361Z,7.50
2023-03-05T11:08:28.338Z,7.60
2023-03-05T11:11:17.802Z,7.60
2023-03-05T11:14:01.116Z,7.70
2023-03-05T11:16:32.918Z,7.60
2023-03-05T11:19:22.773Z,7.70
2023-03-05T11:22:21.079Z,7.70
2023-03-05T11:25:11.156Z,7.70
2023-03-05T11:27:52.455Z,7.70
2023-03-05T11:30:26.616Z,7.70
2023-03-05T11:33:10.822Z,7.80
2023-03-05T11:35:42.137Z,7.80
2023-03-05T11:38:24.446Z,7.90
2023-03-05T11:40:54.977Z,7.90
2023-03-05T11:43:25.338Z,7.90
2023-03-05T11:46:02.643Z,7.90
2023-03-05T11:48:37.021Z,8.00
2023-03-05T11:51:20.935Z,8.10
2023-03-05T11:53:56.112Z,8.20
2023-03-05T11:56:31.658Z,8.30
2023-03-05T11:59:18.451Z,8.40
2023-03-05T12:01:55.343Z,8.50
2023-03-05T12:04:24.390Z,8.50
2023-03-05T12:07:02.576Z,8.60
2023-03-05T12:09:51.831Z,8.60
2023-03-05T12:12:55.634Z,8.60
2023-03-05T12:16:01.133Z,8.50
2023-03-05T12:19:10.468Z,8.60
2023-03-05T12:21:41.732Z,8.80
2023-03-05T12:24:25.422Z,8.80
2023-03-05T12:26:53.569Z,9.00
2023-03-05T12:29:51.272Z,9.20
2023-03-05T12:32:31.412Z,9.30
2023-03-05T12:35:00.205Z,9.50
2023-03-05T12:37:27.271Z,9.50
2023-03-05T12:40:20.598Z,9.50
2023-03-05T12:43:06.066Z,9.40
2023-03-05T12:45:40.073Z,9.30
2023-03-05T12:48:11.910Z,9.30
2023-03-05T12:50:38.815Z,9.30
2023-03-05T12:53:20.832Z,9.20
2023-03-05T12:55:59.192Z,9.20
2023-03-05T12:58:42.473Z,9.20
2023-03-05T13:01:12.484Z,9.30
2023-03-05T13:03:53.342Z,9.40
2023-03-05T13:06:24.802Z,9.40
2023-03-05T13:09:03.472Z,9.60
2023-03-05T13:11:34.469Z,9.70
2023-03-05T13:14:02.854Z,9.70
2023-03-05T13:16:38.789Z,9.80
2023-03-05T13:19:17.638Z,9.90
2023-03-05T13:21:44.725Z,10.00
2023-03-05T13:24:19.733Z,10.00
2023-03-05T13:26:46.650Z,10.10
2023-03-05T13:29:16.210Z,10.20
2023-03-05T13:31:56.090Z,10.20
2023-03-05T13:34:46.641Z,10.30
2023-03-05T13:37:22.303Z,10.30
2023-03-05T13:39:58.880Z,10.40
2023-03-05T13:42:32.387Z,10.40
2023-03-05T13:45:06.625Z,10.50
2023-03-05T13:47:36.183Z,10.50
2023-03-05T13:50:22.065Z,10.50
2023-03-05T13:52:48.917Z,10.50
2023-03-05T13:55:17.989Z,10.40
2023-03-05T13:57:52.998Z,10.40
2023-03-05T14:00:38.920Z,10.30
2023-03-05T14:03:27.924Z,10.30
2023-03-05T14:05:55.080Z,10.20
2023-03-05T14:08:25.718Z,10.20
2023-03-05T14:10:59.278Z,10.20
2023-03-05T14:13:31.987Z,10.10
2023-03-05T14:16:25.012Z,10.00
2023-03-05T14:18:59.255Z,10.00
2023-03-05T14:21:48.651Z,9.90
2023-03-05T14:24:25.471Z,9.90
2023-03-05T14:26:57.770Z,9.80
2023-03-05T14:29:28.744Z,9.70
2023-03-05T14:32:06.782Z,9.70
2023-03-05T14:34:36.999Z,9.70
2023-03-05T14:37:17.020Z,9.60
2023-03-05T14:39:56.466Z,9.50
2023-03-05T14:42:38.770Z,9.50
2023-03-05T14:45:20.703Z,9.50
2023-03-05T14:47:47.752Z,9.40
2023-03-05T14:50:29.300Z,9.40
2023-03-05T14:53:03.628Z,9.30
2023-03-05T14:55:32.388Z,9.30
2023-03-05T14:58:14.571Z,9.10
2023-03-05T15:00:42.903Z,9.20
2023-03-05T15:03:14.893Z,9.20
2023-03-05T15:05:44.362Z,9.20
2023-03-05T15:08:17.097Z,9.10
2023-03-05T15:10:44.161Z,9.10
2023-03-05T15:13:14.228Z,9.10
2023-03-05T15:15:43.149Z,9.10
2023-03-05T15:18:16.467Z,9.10
2023-03-05T15:20:45.071Z,9.00
2023-03-05T15:23:12.997Z,9.00
2023-03-05T15:25:40.861Z,9.00
2023-03-05T15:28:08.192Z,9.00
2023-03-05T15:30:42.281Z,8.90
2023-03-05T15:33:17.746Z,8.90
2023-03-05T15:35:45.193Z,8.90
2023-03-05T15:38:12.136Z,8.80
2023-03-05T15:40:39.165Z,8.80
2023-03-05T15:43:05.998Z,8.80
2023-03-05T15:45:32.893Z,8.80
2023-03-05T15:47:59.823Z,8.80
2023-03-05T15:50:26.963Z,8.80
2023-03-05T15:52:53.891Z,8.70
2023-03-05T15:55:24.616Z,8.70
2023-03-05T15:57:53.522Z,8.70
2023-03-05T16:00:28.547Z,8.60
2023-03-05T16:02:55.583Z,8.50
2023-03-05T16:05:23.125Z,8.50
2023-03-05T16:07:53.285Z,8.50
2023-03-05T16:10:25.570Z,8.40
2023-03-05T16:13:08.639Z,8.40
2023-03-05T16:15:37.398Z,8.30
2023-03-05T16:18:10.115Z,8.30
2023-03-05T16:20:37.724Z,8.20
2023-03-05T16:23:05.833Z,8.20
2023-03-05T16:25:33.096Z,8.10
2023-03-05T16:27:59.971Z,8.10
2023-03-05T16:30:26.789Z,8.10
2023-03-05T16:32:53.928Z,8.10
2023-03-05T16:35:21.172Z,8.00
2023-03-05T16:37:48.109Z,8.00
2023-03-05T16:40:15.572Z,7.90
2023-03-05T16:42:43.060Z,7.90
2023-03-05T16:45:12.442Z,7.80
2023-03-05T16:47:40.076Z,7.80
2023-03-05T16:50:09.592Z,7.70
2023-03-05T16:52:37.110Z,7.70
2023-03-05T16:55:06.141Z,7.70
2023-03-05T16:57:33.022Z,7.60
2023-03-05T17:00:02.493Z,7.50
2023-03-05T17:02:29.554Z,7.50
2023-03-05T17:04:57.779Z,7.50
2023-03-05T17:07:26.455Z,7.40
2023-03-05T17:09:54.414Z,7.40
2023-03-05T17:12:22.507Z,7.40
2023-03-05T17:14:49.526Z,7.40
2023-03-05T17:17:16.665Z,7.40
2023-03-05T17:19:43.772Z,7.40
2023-03-05T17:22:12.678Z,7.40
2023-03-05T17:24:42.941Z,7.40
2023-03-05T17:27:11.026Z,7.30
2023-03-05T17:29:38.041Z,7.30
2023-03-05T17:32:06.107Z,7.30
2023-03-05T17:34:36.676Z,7.30
2023-03-05T17:37:05.369Z,7.30
2023-03-05T17:39:32.776Z,7.40
2023-03-05T17:42:00.816Z,7.30
2023-03-05T17:44:27.652Z,7.30
2023-03-05T17:46:54.629Z,7.30
2023-03-05T17:49:21.652Z,7.30
2023-03-05T17:51:48.539Z,7.20
2023-03-05T17:54:15.605Z,7.30
2023-03-05T17:56:42.602Z,7.20
2023-03-05T17:59:09.689Z,7.20
2023-03-05T18:01:36.655Z,7.30
2023-03-05T18:04:03.905Z,7.20
2023-03-05T18:06:31.951Z,7.30
2023-03-05T18:08:59.312Z,7.30
2023-03-05T18:11:27.504Z,7.30
2023-03-05T18:13:54.427Z,7.30
2023-03-05T18:16:23.379Z,7.30
2023-03-05T18:18:50.470Z,7.20
2023-03-05T18:21:25.308Z,7.30
2023-03-05T18:23:52.480Z,7.40
2023-03-05T18:26:19.356Z,7.30
2023-03-05T18:28:46.258Z,7.30
2023-03-05T18:31:13.310Z,7.30
2023-03-05T18:33:40.718Z,7.40
2023-03-05T18:36:10.741Z,7.40
2023-03-05T18:38:38.577Z,7.40
2023-03-05T18:41:06.446Z,7.40
2023-03-05T18:43:33.743Z,7.40
2023-03-05T18:46:04.843Z,7.40
2023-03-05T18:48:31.838Z,7.40
2023-03-05T18:50:59.235Z,7.30
2023-03-05T18:53:26.567Z,7.30
2023-03-05T18:55:53.774Z,7.30
2023-03-05T18:58:20.923Z,7.30
2023-03-05T19:00:49.067Z,7.30
2023-03-05T19:03:18.999Z,7.30
2023-03-05T19:05:47.010Z,7.30
2023-03-05T19:08:13.939Z,7.30
2023-03-05T19:10:40.851Z,7.30
2023-03-05T19:13:39.793Z,7.30
2023-03-05T19:16:17.901Z,7.20
2023-03-05T19:19:11.274Z,7.30
2023-03-05T19:21:39.121Z,7.30
2023-03-05T19:24:07.466Z,7.30
2023-03-05T19:26:35.102Z,7.20
2023-03-05T19:29:02.556Z,7.20
2023-03-05T19:31:29.797Z,7.20
2023-03-05T19:33:56.696Z,7.20
2023-03-05T19:36:23.743Z,7.20
2023-03-05T19:38:50.639Z,7.20
2023-03-05T19:41:19.430Z,7.20
2023-03-05T19:43:47.306Z,7.10
2023-03-05T19:46:14.363Z,7.10
2023-03-05T19:48:42.476Z,7.10
2023-03-05T19:51:12.872Z,7.10
2023-03-05T19:53:41.603Z,7.10
2023-03-05T19:56:09.963Z,7.10
2023-03-05T19:58:38.395Z,7.10
2023-03-05T20:01:14.279Z,7.10
2023-03-05T20:03:44.291Z,7.10
2023-03-05T20:06:11.321Z,7.10
2023-03-05T20:08:38.520Z,7.20
2023-03-05T20:11:06.989Z,7.20
2023-03-05T20:13:34.067Z,7.10
2023-03-05T20:16:01.049Z,7.10
2023-03-05T20:18:28.015Z,7.10
2023-03-05T20:20:58.844Z,7.10
2023-03-05T20:23:25.840Z,7.10
2023-03-05T20:25:52.784Z,7.00
2023-03-05T20:28:26.230Z,7.00
2023-03-05T20:30:59.437Z,7.00
2023-03-05T20:33:28.497Z,7.00
2023-03-05T20:35:56.911Z,7.00
2023-03-05T20:38:31.764Z,6.90
2023-03-05T20:41:05.420Z,7.00
2023-03-05T20:43:36.510Z,7.00
2023-03-05T20:46:05.430Z,6.90
2023-03-05T20:48:34.243Z,6.90
2023-03-05T20:51:19.129Z,6.90
2023-03-05T20:53:46.349Z,7.00
2023-03-05T20:56:13.245Z,7.00
2023-03-05T20:58:40.147Z,6.90
2023-03-05T21:01:07.462Z,7.00
2023-03-05T21:03:34.455Z,6.90
2023-03-05T21:06:04.149Z,7.00
2023-03-05T21:08:31.685Z,6.90
2023-03-05T21:11:00.145Z,6.90
2023-03-05T21:13:27.255Z,6.90
2023-03-05T21:15:54.194Z,7.00
2023-03-05T21:18:21.199Z,6.90
2023-03-05T21:20:48.082Z,6.90
2023-03-05T21:23:15.032Z,6.90
2023-03-05T21:25:42.004Z,6.90
2023-03-05T21:28:17.844Z,6.90
2023-03-05T21:30:49.015Z,6.90
2023-03-05T21:33:23.752Z,7.00
2023-03-05T21:35:52.782Z,7.00
2023-03-05T21:38:23.052Z,7.00
2023-03-05T21:40:52.578Z,7.00
2023-03-05T21:43:23.158Z,7.00
2023-03-05T21:45:53.585Z,7.00
2023-03-05T21:48:22.082Z,7.00
2023-03-05T21:50:50.181Z,7.00
2023-03-05T21:53:19.306Z,6.90
2023-03-05T21:56:03.061Z,6.90
2023-03-05T21:58:34.359Z,6.90
2023-03-05T22:01:02.167Z,6.90
2023-03-05T22:03:29.994Z,6.90
2023-03-05T22:05:57.712Z,6.90
2023-03-05T22:08:25.232Z,6.80
2023-03-05T22:10:52.329Z,6.90
2023-03-05T22:13:20.140Z,6.90
2023-03-05T22:15:53.942Z,6.90
2023-03-05T22:18:28.207Z,6.80
2023-03-05T22:20:56.652Z,6.80
2023-03-05T22:23:28.171Z,6.80
2023-03-05T22:26:07.353Z,6.80
2023-03-05T22:28:36.229Z,6.80
2023-03-05T22:31:03.460Z,6.80
2023-03-05T22:33:31.517Z,6.80
2023-03-05T22:35:58.974Z,6.70
2023-03-05T22:38:26.374Z,6.70
2023-03-05T22:40:53.390Z,6.70
2023-03-05T22:43:20.804Z,6.70
2023-03-05T22:45:48.021Z,6.70
2023-03-05T22:48:15.127Z,6.70
2023-03-05T22:50:46.428Z,6.50
2023-03-05T22:53:13.403Z,6.60
2023-03-05T22:55:42.185Z,6.60
2023-03-05T22:58:09.316Z,6.60
2023-03-05T23:00:36.297Z,6.60
2023-03-05T23:03:03.454Z,6.50
2023-03-05T23:05:30.410Z,6.50
2023-03-05T23:07:57.286Z,6.50
2023-03-05T23:10:28.576Z,6.40
2023-03-05T23:12:58.597Z,6.40
2023-03-05T23:15:35.932Z,6.30
2023-03-05T23:18:06.280Z,6.40
2023-03-05T23:20:36.624Z,6.30
2023-03-05T23:23:04.729Z,6.40
2023-03-05T23:25:35.071Z,6.40
2023-03-05T23:28:03.098Z,6.40
2023-03-05T23:30:37.288Z,6.40
2023-03-05T23:33:17.485Z,6.40
2023-03-05T23:35:58.848Z,6.50
2023-03-05T23:38:29.803Z,6.50
2023-03-05T23:41:01.339Z,6.50
2023-03-05T23:43:28.923Z,6.40
2023-03-05T23:45:56.799Z,6.40
2023-03-05T23:48:26.419Z,6.40
2023-03-05T23:50:53.993Z,6.40
2023-03-05T23:53:28.805Z,6.40
2023-03-05T23:55:56.133Z,6.40
2023-03-05T23:58:23.982Z,6.40
